4XCWC LLHA-LLHA
Flight info
| Callsign | 4XCWC |
|---|---|
| Flight time | 0h 31m |
| Altitude | 3000 |
| Route | TRAINING AREAS |
| Aircraft | C152/L-V/N |
Departure
| Time | 2026-04-25 18:21 |
|---|---|
| Airport | Uri Michaeli Haifa International Airport (LLHA) |
Arrival
| Time | 2026-04-25 18:53 |
|---|---|
| Airport | Uri Michaeli Haifa International Airport (LLHA) |
| Time | Latitude | Longitude | Altitude | Speed | Heading |
|---|---|---|---|---|---|
| 2026-04-25 18:08 | 32.81128 | 35.04203 | 20 ft | 0 kts | 340° |
| 2026-04-25 18:14 | 32.81130 | 35.04202 | 20 ft | 1 kts | 340° |
| 2026-04-25 18:15 | 32.81149 | 35.04211 | 20 ft | 5 kts | 67° |
| 2026-04-25 18:15 | 32.81153 | 35.04225 | 20 ft | 0 kts | 72° |
| 2026-04-25 18:15 | 32.81155 | 35.04232 | 20 ft | 0 kts | 71° |
| 2026-04-25 18:18 | 32.81164 | 35.04260 | 21 ft | 5 kts | 70° |
| 2026-04-25 18:19 | 32.81140 | 35.04313 | 21 ft | 13 kts | 157° |
| 2026-04-25 18:19 | 32.81033 | 35.04363 | 21 ft | 19 kts | 160° |
| 2026-04-25 18:19 | 32.80892 | 35.04424 | 22 ft | 24 kts | 159° |
| 2026-04-25 18:19 | 32.80818 | 35.04465 | 20 ft | 5 kts | 27° |
| 2026-04-25 18:20 | 32.80841 | 35.04453 | 21 ft | 3 kts | 336° |
| 2026-04-25 18:20 | 32.80985 | 35.04390 | 22 ft | 48 kts | 339° |
| 2026-04-25 18:20 | 32.81386 | 35.04221 | 139 ft | 62 kts | 339° |
| 2026-04-25 18:20 | 32.81781 | 35.04048 | 327 ft | 61 kts | 340° |
| 2026-04-25 18:21 | 32.82183 | 35.03895 | 504 ft | 60 kts | 341° |
| 2026-04-25 18:21 | 32.82612 | 35.03844 | 664 ft | 64 kts | 17° |
| 2026-04-25 18:21 | 32.82963 | 35.04153 | 851 ft | 64 kts | 48° |
| 2026-04-25 18:21 | 32.83233 | 35.04593 | 1017 ft | 68 kts | 52° |
| 2026-04-25 18:22 | 32.83447 | 35.05075 | 1200 ft | 67 kts | 70° |
| 2026-04-25 18:22 | 32.83484 | 35.05252 | 1255 ft | 68 kts | 78° |
| 2026-04-25 18:22 | 32.83601 | 35.06220 | 1533 ft | 76 kts | 82° |
| 2026-04-25 18:22 | 32.83644 | 35.06865 | 1570 ft | 84 kts | 84° |
| 2026-04-25 18:23 | 32.83693 | 35.07585 | 1532 ft | 88 kts | 83° |
| 2026-04-25 18:23 | 32.83763 | 35.08307 | 1503 ft | 87 kts | 81° |
| 2026-04-25 18:23 | 32.83843 | 35.09003 | 1505 ft | 84 kts | 82° |
| 2026-04-25 18:23 | 32.83951 | 35.09680 | 1504 ft | 83 kts | 77° |
| 2026-04-25 18:24 | 32.84064 | 35.10354 | 1509 ft | 83 kts | 76° |
| 2026-04-25 18:24 | 32.84196 | 35.11025 | 1480 ft | 85 kts | 75° |
| 2026-04-25 18:24 | 32.84317 | 35.11699 | 1456 ft | 82 kts | 78° |
| 2026-04-25 18:24 | 32.84423 | 35.12365 | 1451 ft | 82 kts | 81° |
| 2026-04-25 18:25 | 32.84488 | 35.13036 | 1483 ft | 81 kts | 81° |
| 2026-04-25 18:25 | 32.84789 | 35.13571 | 1457 ft | 80 kts | 31° |
| 2026-04-25 18:25 | 32.85260 | 35.13873 | 1601 ft | 72 kts | 22° |
| 2026-04-25 18:25 | 32.85730 | 35.14020 | 1841 ft | 68 kts | 9° |
| 2026-04-25 18:26 | 32.86181 | 35.14111 | 2041 ft | 62 kts | 8° |
| 2026-04-25 18:26 | 32.86591 | 35.14187 | 1976 ft | 61 kts | 11° |
| 2026-04-25 18:26 | 32.87024 | 35.14298 | 1789 ft | 67 kts | 13° |
| 2026-04-25 18:26 | 32.87467 | 35.14432 | 1672 ft | 64 kts | 15° |
| 2026-04-25 18:27 | 32.87810 | 35.14759 | 1539 ft | 69 kts | 63° |
| 2026-04-25 18:27 | 32.87792 | 35.15260 | 1830 ft | 63 kts | 110° |
| 2026-04-25 18:27 | 32.87495 | 35.15639 | 2053 ft | 65 kts | 152° |
| 2026-04-25 18:27 | 32.87031 | 35.15689 | 2186 ft | 70 kts | 192° |
| 2026-04-25 18:28 | 32.86585 | 35.15462 | 2269 ft | 67 kts | 182° |
| 2026-04-25 18:28 | 32.86495 | 35.15802 | 2038 ft | 65 kts | 355° |
| 2026-04-25 18:28 | 32.86729 | 35.15404 | 1851 ft | 74 kts | 255° |
| 2026-04-25 18:29 | 32.86008 | 35.14584 | 1578 ft | 72 kts | 227° |
| 2026-04-25 18:29 | 32.85735 | 35.14121 | 1599 ft | 69 kts | 258° |
| 2026-04-25 18:30 | 32.86556 | 35.13225 | 2192 ft | 65 kts | 25° |
| 2026-04-25 18:30 | 32.86929 | 35.13536 | 2420 ft | 65 kts | 33° |
| 2026-04-25 18:30 | 32.87327 | 35.13806 | 2580 ft | 71 kts | 24° |
| 2026-04-25 18:30 | 32.87805 | 35.14074 | 2577 ft | 81 kts | 26° |
| 2026-04-25 18:31 | 32.88303 | 35.14390 | 2541 ft | 82 kts | 28° |
| 2026-04-25 18:31 | 32.88768 | 35.14728 | 2489 ft | 75 kts | 35° |
| 2026-04-25 18:31 | 32.89113 | 35.15157 | 2504 ft | 71 kts | 57° |
| 2026-04-25 18:31 | 32.89157 | 35.15736 | 2569 ft | 75 kts | 112° |
| 2026-04-25 18:32 | 32.88704 | 35.16044 | 2515 ft | 83 kts | 188° |
| 2026-04-25 18:32 | 32.88189 | 35.15756 | 2483 ft | 81 kts | 213° |
| 2026-04-25 18:32 | 32.87766 | 35.15366 | 2532 ft | 70 kts | 222° |
| 2026-04-25 18:32 | 32.87443 | 35.15009 | 2563 ft | 61 kts | 226° |
| 2026-04-25 18:33 | 32.87104 | 35.14641 | 2630 ft | 71 kts | 223° |
| 2026-04-25 18:33 | 32.86710 | 35.14244 | 2621 ft | 79 kts | 218° |
| 2026-04-25 18:33 | 32.86258 | 35.13854 | 2555 ft | 81 kts | 216° |
| 2026-04-25 18:33 | 32.85795 | 35.13503 | 2510 ft | 74 kts | 201° |
| 2026-04-25 18:34 | 32.85484 | 35.13572 | 2488 ft | 75 kts | 127° |
| 2026-04-25 18:34 | 32.85689 | 35.14001 | 2488 ft | 72 kts | 29° |
| 2026-04-25 18:34 | 32.86124 | 35.14301 | 2501 ft | 72 kts | 35° |
| 2026-04-25 18:34 | 32.86496 | 35.14639 | 2534 ft | 62 kts | 40° |
| 2026-04-25 18:35 | 32.86799 | 35.14952 | 2527 ft | 58 kts | 40° |
| 2026-04-25 18:35 | 32.87127 | 35.15248 | 2593 ft | 57 kts | 32° |
| 2026-04-25 18:35 | 32.87456 | 35.15508 | 2644 ft | 57 kts | 30° |
| 2026-04-25 18:35 | 32.87833 | 35.15668 | 2647 ft | 61 kts | 354° |
| 2026-04-25 18:36 | 32.88138 | 35.15324 | 2627 ft | 70 kts | 285° |
| 2026-04-25 18:36 | 32.87928 | 35.14806 | 2597 ft | 74 kts | 219° |
| 2026-04-25 18:36 | 32.87480 | 35.14543 | 2567 ft | 70 kts | 205° |
| 2026-04-25 18:36 | 32.87047 | 35.14307 | 2558 ft | 66 kts | 207° |
| 2026-04-25 18:37 | 32.86594 | 35.14063 | 2507 ft | 83 kts | 202° |
| 2026-04-25 18:37 | 32.86008 | 35.13790 | 2538 ft | 94 kts | 202° |
| 2026-04-25 18:37 | 32.85463 | 35.13512 | 2493 ft | 77 kts | 205° |
| 2026-04-25 18:37 | 32.84976 | 35.13369 | 2464 ft | 69 kts | 175° |
| 2026-04-25 18:38 | 32.84563 | 35.13613 | 2302 ft | 69 kts | 122° |
| 2026-04-25 18:38 | 32.84630 | 35.14107 | 2081 ft | 66 kts | 43° |
| 2026-04-25 18:38 | 32.84987 | 35.14481 | 1926 ft | 71 kts | 42° |
| 2026-04-25 18:38 | 32.85357 | 35.14904 | 1704 ft | 77 kts | 45° |
| 2026-04-25 18:39 | 32.85765 | 35.15312 | 1506 ft | 73 kts | 12° |
| 2026-04-25 18:39 | 32.86235 | 35.15243 | 1360 ft | 64 kts | 25° |
| 2026-04-25 18:39 | 32.86323 | 35.15792 | 1021 ft | 80 kts | 114° |
| 2026-04-25 18:39 | 32.86357 | 35.16352 | 747 ft | 73 kts | 24° |
| 2026-04-25 18:40 | 32.86799 | 35.16413 | 472 ft | 59 kts | 6° |
| 2026-04-25 18:40 | 32.87238 | 35.16477 | 387 ft | 72 kts | 5° |
| 2026-04-25 18:40 | 32.87736 | 35.16516 | 585 ft | 71 kts | 0° |
| 2026-04-25 18:40 | 32.88235 | 35.16493 | 770 ft | 73 kts | 354° |
| 2026-04-25 18:41 | 32.88713 | 35.16324 | 956 ft | 71 kts | 339° |
| 2026-04-25 18:41 | 32.89175 | 35.16157 | 1159 ft | 70 kts | 358° |
| 2026-04-25 18:41 | 32.89607 | 35.16357 | 1355 ft | 67 kts | 44° |
| 2026-04-25 18:41 | 32.89798 | 35.16856 | 1611 ft | 67 kts | 78° |
| 2026-04-25 18:42 | 32.89611 | 35.17365 | 1757 ft | 75 kts | 141° |
| 2026-04-25 18:42 | 32.89302 | 35.17524 | 1873 ft | 72 kts | 165° |
| 2026-04-25 18:42 | 32.88633 | 35.17342 | 1967 ft | 80 kts | 217° |
| 2026-04-25 18:42 | 32.88197 | 35.16902 | 2083 ft | 79 kts | 219° |
| 2026-04-25 18:43 | 32.87731 | 35.16541 | 2170 ft | 82 kts | 216° |
| 2026-04-25 18:43 | 32.87434 | 35.16252 | 2220 ft | 37 kts | 238° |
| 2026-04-25 18:43 | 32.87225 | 35.15925 | 1264 ft | 53 kts | 232° |
| 2026-04-25 18:43 | 32.86884 | 35.15426 | 1123 ft | 83 kts | 239° |
| 2026-04-25 18:44 | 32.86591 | 35.14852 | 1305 ft | 80 kts | 248° |
| 2026-04-25 18:44 | 32.86666 | 35.14276 | 1523 ft | 72 kts | 314° |
| 2026-04-25 18:44 | 32.87143 | 35.14176 | 1664 ft | 72 kts | 10° |
| 2026-04-25 18:44 | 32.87453 | 35.14254 | 1489 ft | 61 kts | 5° |
| 2026-04-25 18:45 | 32.88053 | 35.14327 | 1505 ft | 83 kts | 6° |
| 2026-04-25 18:45 | 32.88483 | 35.14659 | 1668 ft | 76 kts | 63° |
| 2026-04-25 18:45 | 32.88423 | 35.15252 | 1774 ft | 75 kts | 124° |
| 2026-04-25 18:45 | 32.87973 | 35.15523 | 1937 ft | 74 kts | 179° |
| 2026-04-25 18:46 | 32.87479 | 35.15329 | 2036 ft | 68 kts | 210° |
| 2026-04-25 18:46 | 32.87219 | 35.15074 | 1766 ft | 79 kts | 242° |
| 2026-04-25 18:46 | 32.86846 | 35.14694 | 1860 ft | 76 kts | 207° |
| 2026-04-25 18:46 | 32.86355 | 35.14392 | 1950 ft | 86 kts | 209° |
| 2026-04-25 18:47 | 32.85795 | 35.14001 | 1984 ft | 97 kts | 213° |
| 2026-04-25 18:47 | 32.85224 | 35.13563 | 2018 ft | 100 kts | 214° |
| 2026-04-25 18:47 | 32.84683 | 35.13084 | 2037 ft | 94 kts | 225° |
| 2026-04-25 18:47 | 32.84276 | 35.12466 | 1904 ft | 97 kts | 237° |
| 2026-04-25 18:48 | 32.83881 | 35.11823 | 1765 ft | 94 kts | 236° |
| 2026-04-25 18:48 | 32.83499 | 35.11202 | 1651 ft | 93 kts | 235° |
| 2026-04-25 18:48 | 32.83113 | 35.10610 | 1531 ft | 90 kts | 233° |
| 2026-04-25 18:48 | 32.82737 | 35.10020 | 1494 ft | 90 kts | 235° |
| 2026-04-25 18:49 | 32.82360 | 35.09436 | 1462 ft | 89 kts | 234° |
| 2026-04-25 18:49 | 32.81988 | 35.08855 | 1466 ft | 89 kts | 232° |
| 2026-04-25 18:49 | 32.81622 | 35.08261 | 1439 ft | 89 kts | 231° |
| 2026-04-25 18:49 | 32.81103 | 35.07850 | 1361 ft | 94 kts | 200° |
| 2026-04-25 18:50 | 32.80465 | 35.07686 | 1187 ft | 93 kts | 190° |
| 2026-04-25 18:50 | 32.79828 | 35.07606 | 1012 ft | 89 kts | 187° |
| 2026-04-25 18:50 | 32.79287 | 35.07413 | 957 ft | 79 kts | 207° |
| 2026-04-25 18:50 | 32.78838 | 35.07050 | 901 ft | 77 kts | 223° |
| 2026-04-25 18:51 | 32.78440 | 35.06634 | 832 ft | 76 kts | 225° |
| 2026-04-25 18:51 | 32.78194 | 35.06330 | 777 ft | 75 kts | 238° |
| 2026-04-25 18:51 | 32.78375 | 35.05681 | 600 ft | 67 kts | 319° |
| 2026-04-25 18:51 | 32.78731 | 35.05323 | 520 ft | 67 kts | 322° |
| 2026-04-25 18:52 | 32.79121 | 35.05024 | 417 ft | 68 kts | 336° |
| 2026-04-25 18:52 | 32.79574 | 35.04863 | 320 ft | 69 kts | 351° |
| 2026-04-25 18:52 | 32.80047 | 35.04760 | 190 ft | 65 kts | 346° |
| 2026-04-25 18:52 | 32.80461 | 35.04615 | 57 ft | 60 kts | 341° |
| 2026-04-25 18:53 | 32.80817 | 35.04464 | 21 ft | 42 kts | 339° |
| 2026-04-25 18:53 | 32.81022 | 35.04374 | 21 ft | 25 kts | 341° |
| 2026-04-25 18:53 | 32.81151 | 35.04317 | 21 ft | 11 kts | 333° |
| 2026-04-25 18:53 | 32.81163 | 35.04258 | 21 ft | 7 kts | 248° |
| 2026-04-25 18:54 | 32.81143 | 35.04227 | 20 ft | 0 kts | 246° |